»·PEaware :: N16566 KLAX-KCNO

N16566 :: KLAX-KCNO

FLIGHT INFORMATION

Flight Status: Arrived
Operator: Privately registered:
United States
More flights under this callsign
Pilot: Erik K. (18332)
Aircraft: PIPER PA-28R-201 ARROW
(P28R)
More flights by this aircraft type
Origin: KLAX Los Angeles Intl
United States
Destination: KCNO Chino
United States
More flights between these airports :: More routes between these airports
Route: SLI8 SLI V8 PDZ
File this flight plan on PilotEdge
Remarks:
Altitude:
(Current/Filed)
5,000ft
Speed:
(Current/Filed)
142kts
Departed: 22-Jan-19 08:22 PM
Arrived: 22-Jan-19 09:07 PM
Distance/Time
Traveled:
38nm/0:44
Distance/Time
To Go:
Arrived

Flight Plot

Page will automatically refresh every two minutes.

Flight plan parsing failed; only flown route is shown


Map Options




Map Legend


Flown Route
Filed Route
Departure Airport
Arrival Airport
Navaid (VOR, NDB)
Fix

Horizontal Profiles

Position Reports

Time Latitude Longitude Heading Altitude Ground
Speed
22-Jan-19 20:03 33.934205 -118.394290 175 106ft 0kts
22-Jan-19 20:03 33.934205 -118.394290 175 106ft 0kts
22-Jan-19 20:04 33.934205 -118.394290 175 106ft 0kts
22-Jan-19 20:05 33.934205 -118.394290 175 106ft 0kts
22-Jan-19 20:06 33.934205 -118.394290 175 106ft 0kts
22-Jan-19 20:07 33.934205 -118.394290 175 106ft 0kts
22-Jan-19 20:08 33.934205 -118.394290 175 106ft 0kts
22-Jan-19 20:09 33.934205 -118.394290 175 106ft 0kts
22-Jan-19 20:10 33.934205 -118.394290 175 106ft 0kts
22-Jan-19 20:11 33.934176 -118.394287 175 106ft 0kts
22-Jan-19 20:12 33.934085 -118.394279 175 106ft 0kts
22-Jan-19 20:13 33.933986 -118.394432 330 107ft 6kts
22-Jan-19 20:14 33.935035 -118.393439 79 105ft 7kts
22-Jan-19 20:15 33.935412 -118.389878 83 103ft 14kts
22-Jan-19 20:16 33.935953 -118.384426 81 100ft 15kts
22-Jan-19 20:17 33.936260 -118.382882 32 99ft 0kts
22-Jan-19 20:19 33.936260 -118.382882 32 99ft 0kts
22-Jan-19 20:19 33.936260 -118.382882 32 99ft 0kts
22-Jan-19 20:20 33.936773 -118.382810 348 99ft 9kts
22-Jan-19 20:21 33.936115 -118.394878 263 263ft 82kts
22-Jan-19 20:22 33.933630 -118.425637 271 1147ft 93kts
22-Jan-19 20:23 33.927781 -118.454561 216 1889ft 91kts
22-Jan-19 20:24 33.903263 -118.453785 170 2562ft 91kts
22-Jan-19 20:25 33.880640 -118.437885 144 3445ft 89kts
22-Jan-19 20:26 33.858888 -118.418539 150 4303ft 94kts
22-Jan-19 20:27 33.834016 -118.399512 149 4762ft 116kts
22-Jan-19 20:28 33.804023 -118.375885 150 4789ft 129kts
22-Jan-19 20:29 33.772185 -118.350496 131 4622ft 136kts
22-Jan-19 20:30 33.763836 -118.308501 93 4724ft 130kts
22-Jan-19 20:31 33.763061 -118.264017 84 4767ft 128kts
22-Jan-19 20:32 33.770700 -118.221102 91 4765ft 130kts
22-Jan-19 20:33 33.770995 -118.176801 87 4744ft 134kts
22-Jan-19 20:34 33.772992 -118.132166 77 4658ft 134kts
22-Jan-19 20:35 33.778179 -118.088305 89 4598ft 133kts
22-Jan-19 20:36 33.779917 -118.045466 70 4631ft 128kts
22-Jan-19 20:37 33.800839 -118.011624 47 4719ft 126kts
22-Jan-19 20:38 33.819074 -117.976853 91 4748ft 130kts
22-Jan-19 20:39 33.817047 -117.934044 82 4860ft 124kts
22-Jan-19 20:40 33.822043 -117.889468 77 4727ft 133kts
22-Jan-19 20:41 33.830999 -117.844878 81 4664ft 133kts
22-Jan-19 20:42 33.843871 -117.801439 66 4616ft 132kts
22-Jan-19 20:43 33.854274 -117.757455 85 4610ft 130kts
22-Jan-19 20:44 33.843542 -117.714870 121 4597ft 128kts
22-Jan-19 20:45 33.847951 -117.674843 61 4668ft 135kts
22-Jan-19 20:46 33.863985 -117.632945 57 4699ft 129kts
22-Jan-19 20:47 33.882865 -117.593798 61 4792ft 123kts
22-Jan-19 20:48 33.906492 -117.559355 54 4817ft 128kts
22-Jan-19 20:49 33.927022 -117.520816 62 4713ft 132kts
22-Jan-19 20:50 33.938046 -117.476795 68 4298ft 132kts
22-Jan-19 20:51 33.956261 -117.437233 52 4201ft 122kts
22-Jan-19 20:52 33.974384 -117.400638 59 4352ft 121kts
22-Jan-19 20:53 33.989507 -117.359886 60 4075ft 131kts
22-Jan-19 20:54 34.012426 -117.326768 55 4234ft 113kts
22-Jan-19 20:55 34.035224 -117.306940 320 4160ft 122kts
22-Jan-19 20:56 34.020304 -117.336314 208 4143ft 119kts
22-Jan-19 20:57 33.990421 -117.354943 187 4142ft 118kts
22-Jan-19 20:58 33.971994 -117.383839 278 3952ft 122kts
22-Jan-19 21:00 33.974219 -117.424671 275 3515ft 118kts
22-Jan-19 21:01 33.977125 -117.465703 268 2846ft 116kts
22-Jan-19 21:02 33.975009 -117.506247 283 2183ft 117kts
22-Jan-19 21:03 33.975962 -117.544809 265 1694ft 112kts
22-Jan-19 21:04 33.979169 -117.580835 265 1322ft 100kts
22-Jan-19 21:05 33.978603 -117.614469 281 1049ft 105kts
22-Jan-19 21:06 33.982722 -117.646250 264 1004ft 90kts
22-Jan-19 21:07 33.975827 -117.634441 88 631ft 28kts
22-Jan-19 21:08 33.976914 -117.631651 268 636ft 10kts
22-Jan-19 21:09 33.977401 -117.636737 357 632ft 0kts

Navigation Log

Ident Type
Flight plan parsing failed, navigation log unavailable